Time;durP1;ratioP1;P1;durP2;ratioP2;P2;SDS_P1;SDS_P2;PMS_P1;PMS_P2;Temp;Humidity;BMP_temperature;BMP_pressure;BME280_temperature;BME280_humidity;BME280_pressure;Samples;Min_cycle;Max_cycle;Signal;HPM_P1;HPM_P2
2023/02/19 00:01:09;;;;;;;37.08;18.02;;;9.50;99.90;;;;;;5035113;28;20478;-64
2023/02/19 00:03:35;;;;;;;38.00;18.65;;;9.50;99.90;;;;;;5037653;28;20049;-62
2023/02/19 00:06:02;;;;;;;38.58;18.92;;;9.50;99.90;;;;;;5040893;28;20037;-64
2023/02/19 00:08:32;;;;;;;38.53;19.20;;;9.50;99.90;;;;;;5049787;28;20056;-61
2023/02/19 00:11:02;;;;;;;38.72;18.65;;;9.50;99.90;;;;;;5044748;28;20060;-62
2023/02/19 00:13:28;;;;;;;39.60;19.98;;;9.50;99.90;;;;;;5037203;28;20037;-61
2023/02/19 00:15:55;;;;;;;38.70;19.55;;;9.50;99.90;;;;;;5036383;28;20399;-61
2023/02/19 00:18:21;;;;;;;37.65;17.35;;;9.50;99.90;;;;;;5046932;28;20492;-61
2023/02/19 00:20:46;;;;;;;44.85;19.00;;;9.50;99.90;;;;;;5038461;28;20078;-61
2023/02/19 00:23:12;;;;;;;35.92;16.77;;;9.50;99.90;;;;;;5035587;28;20052;-62
2023/02/19 00:25:38;;;;;;;40.47;17.13;;;9.50;99.90;;;;;;5038505;28;20527;-62
2023/02/19 00:28:04;;;;;;;41.88;18.20;;;9.50;99.90;;;;;;5038390;28;20038;-64
2023/02/19 00:30:29;;;;;;;38.60;17.15;;;9.60;99.90;;;;;;5046082;28;20045;-65
2023/02/19 00:32:55;;;;;;;38.80;16.77;;;9.60;99.90;;;;;;5069916;23;20053;-78
2023/02/19 00:35:21;;;;;;;38.78;16.65;;;9.50;99.90;;;;;;5034376;28;20075;-78
2023/02/19 00:37:47;;;;;;;39.03;15.27;;;9.50;99.90;;;;;;5041815;28;20128;-78
2023/02/19 00:40:12;;;;;;;35.70;14.02;;;9.50;99.90;;;;;;5048518;28;20144;-78
2023/02/19 00:42:38;;;;;;;33.13;13.90;;;9.50;99.90;;;;;;5034412;28;20052;-79
2023/02/19 00:45:04;;;;;;;36.63;13.43;;;9.50;99.90;;;;;;5044477;28;20039;-78
2023/02/19 00:47:29;;;;;;;36.55;12.40;;;9.40;99.90;;;;;;5034416;28;20416;-78
2023/02/19 00:49:55;;;;;;;35.95;12.55;;;9.40;99.90;;;;;;5043213;28;20150;-78
2023/02/19 00:52:20;;;;;;;36.25;11.90;;;9.40;99.90;;;;;;5034627;28;20041;-78
2023/02/19 00:54:46;;;;;;;31.88;11.52;;;9.40;99.90;;;;;;5041038;28;20384;-80
2023/02/19 00:57:11;;;;;;;32.88;10.68;;;9.40;99.90;;;;;;5034552;28;20043;-79
2023/02/19 00:59:37;;;;;;;40.05;11.40;;;9.40;99.90;;;;;;5033710;28;20090;-79
2023/02/19 01:02:03;;;;;;;31.25;11.80;;;9.40;99.90;;;;;;5026061;28;20472;-80
2023/02/19 01:04:28;;;;;;;36.75;11.55;;;9.40;99.90;;;;;;5034783;28;20118;-80
2023/02/19 01:06:54;;;;;;;33.97;11.10;;;9.40;99.90;;;;;;5033532;28;20036;-79
2023/02/19 01:09:19;;;;;;;33.75;11.07;;;9.40;99.90;;;;;;5031328;28;20106;-79
2023/02/19 01:11:45;;;;;;;29.83;10.57;;;9.50;99.90;;;;;;5012455;28;20102;-80
2023/02/19 01:14:11;;;;;;;31.08;10.32;;;9.40;99.90;;;;;;5028196;28;20043;-81
2023/02/19 01:16:36;;;;;;;32.03;11.10;;;9.40;99.90;;;;;;5033265;28;20507;-79
2023/02/19 01:19:02;;;;;;;36.20;10.82;;;9.30;99.90;;;;;;5035725;28;20051;-79
2023/02/19 01:21:29;;;;;;;24.30;9.23;;;9.30;99.90;;;;;;5029801;28;20041;-80
2023/02/19 01:23:56;;;;;;;26.52;9.52;;;9.30;99.90;;;;;;5027879;28;20063;-79
2023/02/19 01:26:28;;;;;;;29.15;9.90;;;9.30;99.90;;;;;;5035663;28;20041;-79
2023/02/19 01:28:54;;;;;;;25.20;9.30;;;9.30;99.90;;;;;;5019950;28;20496;-80
2023/02/19 01:31:21;;;;;;;30.75;9.85;;;9.30;99.90;;;;;;5029988;28;20047;-80
2023/02/19 01:33:55;;;;;;;28.00;10.18;;;9.50;99.90;;;;;;5040350;28;20216;-79
2023/02/19 01:36:21;;;;;;;31.85;9.32;;;9.30;99.90;;;;;;5035043;28;20048;-80
2023/02/19 01:38:48;;;;;;;19.85;7.88;;;9.30;99.90;;;;;;5033271;28;20033;-79
2023/02/19 01:41:23;;;;;;;26.50;8.27;;;9.30;99.90;;;;;;5026882;28;20110;-79
2023/02/19 01:44:27;;;;;;;27.17;9.07;;;9.20;99.90;;;;;;5033615;28;20481;-79
2023/02/19 01:46:56;;;;;;;21.08;8.05;;;9.20;99.90;;;;;;5046281;28;20523;-79
2023/02/19 01:49:47;;;;;;;19.92;8.23;;;9.30;99.90;;;;;;5029524;28;20037;-79
2023/02/19 01:52:22;;;;;;;25.08;8.93;;;9.20;99.90;;;;;;5030360;28;20517;-79
2023/02/19 01:54:48;;;;;;;28.27;9.45;;;9.20;99.90;;;;;;5029085;28;20527;-79
2023/02/19 01:57:25;;;;;;;22.15;8.13;;;9.20;99.90;;;;;;5028804;28;20488;-79
2023/02/19 01:59:56;;;;;;;27.50;8.32;;;9.20;99.90;;;;;;5035539;28;20268;-79
2023/02/19 02:02:23;;;;;;;23.08;8.45;;;9.20;99.90;;;;;;5023676;28;20033;-79
2023/02/19 02:04:50;;;;;;;18.65;7.10;;;9.20;99.90;;;;;;5028689;28;20116;-79
2023/02/19 02:10:19;;;;;;;21.05;7.55;;;9.30;99.90;;;;;;5029224;28;20083;-79
2023/02/19 02:12:46;;;;;;;24.77;7.50;;;9.20;99.90;;;;;;5026402;28;20043;-79
2023/02/19 02:15:13;;;;;;;25.50;7.70;;;9.40;99.90;;;;;;5028564;28;20034;-79
2023/02/19 02:17:49;;;;;;;17.58;7.15;;;9.20;99.90;;;;;;5011253;28;20055;-80
2023/02/19 02:20:20;;;;;;;13.95;6.45;;;9.20;99.90;;;;;;5036419;28;20033;-80
2023/02/19 02:23:05;;;;;;;16.83;6.85;;;9.20;99.90;;;;;;5039714;28;20471;-79
2023/02/19 02:26:07;;;;;;;17.10;6.85;;;9.20;99.90;;;;;;5018528;28;20116;-79
2023/02/19 02:28:47;;;;;;;14.83;6.10;;;9.20;99.90;;;;;;5034018;28;20102;-79
2023/02/19 02:31:21;;;;;;;14.32;6.53;;;9.20;99.90;;;;;;5015013;28;20404;-80
2023/02/19 02:34:16;;;;;;;20.65;6.40;;;9.20;99.90;;;;;;5015749;28;20052;-80
2023/02/19 02:36:46;;;;;;;15.75;6.22;;;9.20;99.90;;;;;;5026500;28;20049;-79
2023/02/19 02:39:16;;;;;;;14.10;5.78;;;9.20;99.90;;;;;;5033037;28;20500;-79
2023/02/19 02:42:25;;;;;;;14.70;5.55;;;9.20;99.90;;;;;;5023209;28;20052;-80
2023/02/19 02:44:40;;;;;;;16.25;5.75;;;9.20;99.90;;;;;;5029794;28;20053;-79
2023/02/19 02:47:39;;;;;;;13.57;5.95;;;9.20;99.90;;;;;;5033901;28;20040;-79
2023/02/19 02:50:05;;;;;;;13.30;5.68;;;9.50;99.90;;;;;;5031971;28;20037;-79
2023/02/19 02:55:23;;;;;;;11.32;5.57;;;9.40;99.90;;;;;;5030248;28;20049;-79
2023/02/19 02:57:49;;;;;;;12.95;6.38;;;9.20;99.90;;;;;;5039176;28;20515;-79
2023/02/19 03:00:15;;;;;;;14.73;5.88;;;9.20;99.90;;;;;;5026845;28;20048;-79
2023/02/19 03:02:42;;;;;;;15.68;6.03;;;9.20;99.90;;;;;;5023161;28;20508;-79
2023/02/19 03:08:17;;;;;;;17.02;6.38;;;9.20;99.90;;;;;;5032011;28;20570;-79
2023/02/19 03:10:58;;;;;;;16.35;6.13;;;9.10;99.90;;;;;;5040961;28;20769;-79
2023/02/19 03:19:19;;;;;;;16.30;6.40;;;9.10;99.90;;;;;;5034364;28;20492;-79
2023/02/19 03:22:33;;;;;;;17.90;7.28;;;9.10;99.90;;;;;;5035231;28;20476;-79
2023/02/19 03:28:00;;;;;;;18.45;7.95;;;9.20;99.90;;;;;;5033133;28;20041;-79
2023/02/19 03:30:31;;;;;;;19.35;7.55;;;9.10;99.90;;;;;;5044923;28;20049;-79
2023/02/19 03:33:11;;;;;;;18.90;7.50;;;9.10;99.90;;;;;;5007543;28;20042;-79
2023/02/19 03:35:48;;;;;;;18.27;8.75;;;9.10;99.90;;;;;;5033756;28;20072;-79
2023/02/19 03:38:25;;;;;;;18.67;8.10;;;9.10;99.90;;;;;;5037040;28;20044;-79
2023/02/19 03:41:09;;;;;;;19.38;9.02;;;9.10;99.90;;;;;;5038709;28;20143;-79
2023/02/19 03:44:11;;;;;;;23.25;10.25;;;9.10;99.90;;;;;;5042680;28;20048;-80
2023/02/19 03:47:06;;;;;;;19.08;9.02;;;9.10;99.90;;;;;;5035465;28;20500;-79
2023/02/19 03:49:39;;;;;;;20.77;10.57;;;9.10;99.90;;;;;;5031987;28;20048;-79
2023/02/19 03:52:31;;;;;;;23.05;10.18;;;9.10;99.90;;;;;;5034386;28;20044;-79
2023/02/19 03:55:12;;;;;;;22.30;9.53;;;9.10;99.90;;;;;;5037357;28;20041;-79
2023/02/19 03:58:01;;;;;;;21.25;9.73;;;9.10;99.90;;;;;;5036613;28;20033;-80
2023/02/19 04:00:50;;;;;;;27.05;11.20;;;9.00;99.90;;;;;;5031101;28;20444;-79
2023/02/19 04:03:34;;;;;;;19.45;10.77;;;9.10;99.90;;;;;;5009470;28;20060;-80
2023/02/19 04:06:15;;;;;;;25.20;10.15;;;9.10;99.90;;;;;;5026511;28;20041;-79
2023/02/19 04:08:46;;;;;;;24.85;10.45;;;9.00;99.90;;;;;;5020146;28;20060;-79
2023/02/19 04:11:14;;;;;;;23.75;10.27;;;9.00;99.90;;;;;;5036111;28;20103;-79
2023/02/19 04:13:46;;;;;;;24.85;10.63;;;9.00;99.90;;;;;;5035133;28;20552;-79
2023/02/19 04:16:19;;;;;;;23.10;9.57;;;9.00;99.90;;;;;;5030612;28;20041;-79
2023/02/19 04:18:48;;;;;;;23.60;9.25;;;9.00;99.90;;;;;;5027520;28;20055;-79
2023/02/19 04:21:15;;;;;;;21.55;9.57;;;9.00;99.90;;;;;;5032790;28;20044;-80
2023/02/19 04:23:44;;;;;;;21.80;8.90;;;9.00;99.90;;;;;;5054257;28;20041;-81
2023/02/19 04:26:11;;;;;;;20.17;9.48;;;9.00;99.90;;;;;;5033777;28;20069;-79
2023/02/19 04:28:37;;;;;;;21.73;8.75;;;9.00;99.90;;;;;;5040036;28;20037;-79
2023/02/19 04:31:03;;;;;;;20.70;7.97;;;8.90;99.90;;;;;;5042502;28;20129;-79
2023/02/19 04:33:29;;;;;;;14.60;7.40;;;9.00;99.90;;;;;;5020899;28;20090;-80
2023/02/19 04:35:54;;;;;;;20.50;7.93;;;9.00;99.90;;;;;;5036981;28;20049;-79
2023/02/19 04:38:20;;;;;;;16.60;6.85;;;9.00;99.90;;;;;;5055459;28;20096;-79
2023/02/19 04:40:46;;;;;;;16.55;6.57;;;9.00;99.90;;;;;;5036479;28;20073;-80
2023/02/19 04:43:11;;;;;;;14.25;6.20;;;8.90;99.90;;;;;;5036585;28;20093;-79
2023/02/19 04:45:38;;;;;;;13.75;5.72;;;8.90;99.90;;;;;;5014652;28;20041;-79
2023/02/19 04:48:04;;;;;;;13.52;5.85;;;8.90;99.90;;;;;;5035067;28;20037;-79
2023/02/19 04:50:30;;;;;;;13.27;5.30;;;8.90;99.90;;;;;;5030541;28;20053;-79
2023/02/19 04:52:55;;;;;;;16.35;6.15;;;9.10;99.90;;;;;;5011589;28;20389;-79
2023/02/19 04:55:21;;;;;;;14.38;6.18;;;8.80;99.90;;;;;;5042976;28;20528;-81
2023/02/19 04:57:46;;;;;;;12.27;5.93;;;9.20;99.90;;;;;;5029688;28;20087;-79
2023/02/19 05:00:12;;;;;;;12.77;5.85;;;9.10;99.90;;;;;;5010598;28;20413;-79
2023/02/19 05:02:38;;;;;;;12.52;6.55;;;8.80;99.90;;;;;;5030410;28;20037;-80
2023/02/19 05:05:04;;;;;;;14.65;6.30;;;8.80;99.90;;;;;;5010524;28;20479;-79
2023/02/19 05:07:29;;;;;;;17.30;6.40;;;8.80;99.90;;;;;;5032625;28;20041;-79
2023/02/19 05:09:55;;;;;;;15.48;6.50;;;8.80;99.90;;;;;;5012768;28;20037;-79
2023/02/19 05:12:21;;;;;;;16.13;7.15;;;8.70;99.90;;;;;;5036408;28;20400;-79
2023/02/19 05:14:46;;;;;;;17.23;7.10;;;8.80;99.90;;;;;;5030438;28;20041;-79
2023/02/19 05:17:12;;;;;;;17.00;7.35;;;8.70;99.90;;;;;;5034203;28;20091;-79
2023/02/19 05:19:37;;;;;;;16.20;7.40;;;8.80;99.90;;;;;;5017807;28;20546;-80
2023/02/19 05:22:03;;;;;;;16.63;7.45;;;9.00;99.90;;;;;;5035705;28;20045;-79
2023/02/19 05:24:30;;;;;;;18.92;8.13;;;9.00;99.90;;;;;;5034620;28;20036;-79
2023/02/19 05:26:56;;;;;;;18.25;7.82;;;8.70;99.90;;;;;;5034999;28;20048;-79
2023/02/19 05:29:22;;;;;;;18.52;7.80;;;8.70;99.90;;;;;;5033534;28;20084;-80
2023/02/19 05:31:48;;;;;;;19.73;8.48;;;8.70;99.90;;;;;;5028195;28;20073;-80
2023/02/19 05:34:14;;;;;;;19.13;8.23;;;8.70;99.90;;;;;;5033817;28;20082;-79
2023/02/19 05:36:40;;;;;;;19.85;8.15;;;8.70;99.90;;;;;;5031254;28;20036;-79
2023/02/19 05:39:07;;;;;;;17.55;8.07;;;8.70;99.90;;;;;;5027026;28;20041;-79
2023/02/19 05:41:33;;;;;;;21.25;8.38;;;8.70;99.90;;;;;;5033562;28;20037;-80
2023/02/19 05:43:58;;;;;;;21.70;8.65;;;8.70;99.90;;;;;;5033474;28;20041;-80
2023/02/19 05:46:28;;;;;;;23.30;8.77;;;9.10;99.90;;;;;;5017298;28;20040;-80
2023/02/19 05:48:54;;;;;;;20.23;9.23;;;8.70;99.90;;;;;;5053672;28;20116;-80
2023/02/19 05:51:22;;;;;;;14.43;7.45;;;8.70;99.90;;;;;;5034323;28;20106;-80
2023/02/19 05:53:48;;;;;;;14.15;6.93;;;9.40;99.90;;;;;;5031577;28;20041;-79
2023/02/19 05:56:30;;;;;;;12.43;6.68;;;8.70;99.90;;;;;;5027650;28;20036;-79
2023/02/19 05:58:56;;;;;;;9.93;5.63;;;8.70;99.90;;;;;;5031694;28;20044;-80
2023/02/19 06:01:25;;;;;;;10.02;6.00;;;8.60;99.90;;;;;;5034681;28;20044;-80
2023/02/19 06:03:50;;;;;;;10.40;6.00;;;8.70;99.90;;;;;;5025954;28;20049;-80
2023/02/19 06:06:17;;;;;;;12.05;5.95;;;9.00;99.90;;;;;;5032141;28;20484;-80
2023/02/19 06:08:43;;;;;;;10.10;6.18;;;8.60;99.90;;;;;;5031264;28;20053;-80
2023/02/19 06:11:09;;;;;;;9.50;5.57;;;8.60;99.90;;;;;;5033993;28;20052;-80
2023/02/19 06:13:35;;;;;;;10.25;5.55;;;8.70;99.90;;;;;;5032242;28;20037;-81
2023/02/19 06:16:05;;;;;;;9.50;5.28;;;8.60;99.90;;;;;;5041177;28;20045;-79
2023/02/19 06:18:31;;;;;;;8.57;5.25;;;8.50;99.90;;;;;;5066635;28;20083;-81
2023/02/19 06:21:02;;;;;;;8.80;4.82;;;8.50;99.90;;;;;;5034536;28;20065;-80
2023/02/19 06:23:29;;;;;;;7.75;4.70;;;8.40;99.90;;;;;;5031012;28;20395;-80
2023/02/19 06:26:03;;;;;;;6.65;4.18;;;8.60;99.90;;;;;;5018219;28;20377;-79
2023/02/19 06:28:28;;;;;;;6.85;4.10;;;8.40;99.90;;;;;;5028205;28;20538;-79
2023/02/19 06:30:56;;;;;;;6.80;4.03;;;8.40;99.90;;;;;;5037268;28;20045;-79
2023/02/19 06:33:22;;;;;;;6.50;4.13;;;8.30;99.90;;;;;;5085521;22;20095;-77
2023/02/19 06:35:47;;;;;;;6.05;3.67;;;8.30;99.90;;;;;;5028606;28;20033;-77
2023/02/19 06:38:13;;;;;;;6.88;3.92;;;8.30;99.90;;;;;;5031923;28;20526;-77
2023/02/19 06:40:39;;;;;;;7.30;4.40;;;8.20;99.90;;;;;;5013832;28;20045;-77
2023/02/19 06:43:04;;;;;;;6.75;3.60;;;8.50;99.90;;;;;;5030070;28;20408;-77
2023/02/19 06:45:30;;;;;;;5.68;3.65;;;8.30;99.90;;;;;;5039345;28;20163;-77
2023/02/19 06:47:55;;;;;;;6.03;3.85;;;8.20;99.90;;;;;;5023816;28;20033;-77
2023/02/19 06:50:21;;;;;;;7.65;3.80;;;8.10;99.90;;;;;;5018639;28;20065;-77
2023/02/19 06:52:46;;;;;;;5.70;3.80;;;8.10;99.90;;;;;;5013778;28;20048;-76
2023/02/19 06:55:12;;;;;;;6.18;3.58;;;8.10;99.90;;;;;;5007377;28;20140;-77
2023/02/19 06:57:38;;;;;;;6.65;3.85;;;8.10;99.90;;;;;;5024696;28;20459;-77
2023/02/19 07:00:04;;;;;;;6.50;3.95;;;8.10;99.90;;;;;;5030230;28;20051;-76
2023/02/19 07:02:32;;;;;;;6.57;3.80;;;8.10;99.90;;;;;;5032983;28;20051;-77
2023/02/19 07:04:58;;;;;;;6.65;4.10;;;8.10;99.90;;;;;;5028415;28;20092;-77
2023/02/19 07:07:26;;;;;;;7.15;4.30;;;8.10;99.90;;;;;;5036580;28;20041;-77
2023/02/19 07:09:51;;;;;;;7.90;4.25;;;8.00;99.90;;;;;;5021148;28;20044;-78
2023/02/19 07:12:17;;;;;;;7.50;3.70;;;8.10;99.90;;;;;;5031036;28;20072;-77
2023/02/19 07:14:42;;;;;;;7.75;4.32;;;8.00;99.90;;;;;;5032298;28;20045;-76
2023/02/19 07:17:08;;;;;;;8.18;3.80;;;8.00;99.90;;;;;;5011879;28;20042;-77
2023/02/19 07:19:33;;;;;;;6.75;3.97;;;8.10;99.90;;;;;;5025726;28;20071;-76
2023/02/19 07:21:59;;;;;;;7.60;3.60;;;8.00;99.90;;;;;;5017954;28;20053;-77
2023/02/19 07:24:25;;;;;;;6.80;3.78;;;8.00;99.90;;;;;;5024973;28;20041;-77
2023/02/19 07:26:50;;;;;;;7.75;4.00;;;8.00;99.90;;;;;;5033879;28;20048;-76
2023/02/19 07:29:16;;;;;;;7.38;4.13;;;8.00;99.90;;;;;;5020878;28;20033;-77
2023/02/19 07:31:42;;;;;;;6.95;4.32;;;8.10;99.90;;;;;;5022902;28;20489;-77
2023/02/19 07:34:07;;;;;;;7.78;4.53;;;8.00;99.90;;;;;;5048802;28;20400;-77
2023/02/19 07:36:33;;;;;;;7.90;4.50;;;8.10;99.90;;;;;;5031796;28;20037;-77
2023/02/19 07:38:59;;;;;;;6.82;4.10;;;7.90;99.90;;;;;;5028850;28;20033;-77
2023/02/19 07:41:26;;;;;;;8.35;4.30;;;7.90;99.90;;;;;;5030763;28;20040;-77
2023/02/19 07:43:53;;;;;;;6.38;4.10;;;7.90;99.90;;;;;;5031533;28;20037;-77
2023/02/19 07:46:19;;;;;;;6.55;4.38;;;8.00;99.90;;;;;;5027340;28;20045;-78
2023/02/19 07:48:45;;;;;;;6.72;4.22;;;7.90;99.90;;;;;;5023873;28;20159;-78
2023/02/19 07:51:15;;;;;;;6.53;3.90;;;7.80;99.90;;;;;;5015986;28;20041;-77
2023/02/19 07:53:41;;;;;;;6.57;4.07;;;7.80;99.90;;;;;;5026424;28;20033;-77
2023/02/19 07:56:07;;;;;;;7.15;3.83;;;7.80;99.90;;;;;;5030977;28;20067;-77
2023/02/19 07:58:33;;;;;;;6.88;3.90;;;7.80;99.90;;;;;;5028906;28;20033;-77
2023/02/19 08:01:09;;;;;;;6.00;3.92;;;7.80;99.90;;;;;;5023090;28;20507;-77
2023/02/19 08:03:37;;;;;;;5.93;3.70;;;7.70;99.90;;;;;;5044521;28;20110;-77
2023/02/19 08:06:03;;;;;;;7.05;3.88;;;7.70;99.90;;;;;;5036361;28;20057;-77
2023/02/19 08:08:29;;;;;;;6.05;3.50;;;7.70;99.90;;;;;;5019926;28;20378;-77
2023/02/19 08:13:41;;;;;;;5.90;3.90;;;8.10;99.90;;;;;;5024391;28;20045;-77
2023/02/19 08:16:12;;;;;;;7.47;3.65;;;7.70;99.90;;;;;;5020550;28;20124;-77
2023/02/19 08:18:38;;;;;;;5.57;3.65;;;7.70;99.90;;;;;;5020838;28;20103;-77
2023/02/19 08:21:04;;;;;;;4.97;3.25;;;7.70;99.90;;;;;;5023784;28;20134;-76
2023/02/19 08:23:29;;;;;;;6.93;3.70;;;7.70;99.90;;;;;;5026913;28;20149;-77
2023/02/19 08:26:02;;;;;;;5.47;3.45;;;7.70;99.90;;;;;;5010633;28;20500;-77
2023/02/19 08:28:29;;;;;;;5.72;3.75;;;7.70;99.90;;;;;;5027755;28;20052;-77
2023/02/19 08:31:02;;;;;;;6.57;3.95;;;8.00;99.90;;;;;;5015694;28;20044;-77
2023/02/19 08:33:29;;;;;;;5.53;3.47;;;7.70;99.90;;;;;;5022745;28;20041;-77
2023/02/19 08:35:55;;;;;;;6.53;3.88;;;7.70;99.90;;;;;;5024594;28;20038;-77
2023/02/19 08:38:21;;;;;;;6.75;3.70;;;7.70;99.90;;;;;;5033643;28;20045;-77
2023/02/19 08:40:47;;;;;;;5.88;3.65;;;7.70;99.90;;;;;;5019398;28;20052;-76
2023/02/19 08:43:15;;;;;;;7.30;3.75;;;7.70;99.90;;;;;;5024015;28;20045;-76
2023/02/19 08:45:43;;;;;;;6.05;3.72;;;7.80;99.90;;;;;;5028650;28;20065;-77
2023/02/19 08:48:10;;;;;;;6.57;3.97;;;7.80;99.90;;;;;;5024074;28;20053;-78
2023/02/19 08:50:37;;;;;;;7.53;3.25;;;7.90;99.90;;;;;;5011420;28;20049;-78
2023/02/19 08:53:04;;;;;;;5.30;3.30;;;7.90;99.90;;;;;;5018671;28;20041;-76
2023/02/19 08:55:30;;;;;;;5.72;3.22;;;7.90;99.90;;;;;;5031210;28;20094;-76
2023/02/19 08:57:56;;;;;;;5.55;3.30;;;8.00;99.90;;;;;;5003319;28;20037;-77
2023/02/19 09:00:22;;;;;;;5.25;3.35;;;8.00;99.90;;;;;;5029916;28;20492;-77
2023/02/19 09:02:48;;;;;;;8.77;4.07;;;8.80;99.90;;;;;;5019986;28;20450;-77
2023/02/19 09:05:14;;;;;;;4.43;2.60;;;8.00;99.90;;;;;;5039446;28;20179;-78
2023/02/19 09:07:41;;;;;;;4.05;2.50;;;8.00;99.90;;;;;;5027539;28;20041;-78
2023/02/19 09:10:07;;;;;;;4.95;3.00;;;8.10;99.90;;;;;;5022848;28;20040;-77
2023/02/19 09:12:33;;;;;;;4.47;2.70;;;8.10;99.90;;;;;;5036869;28;20184;-76
2023/02/19 09:14:59;;;;;;;5.60;3.50;;;8.10;99.90;;;;;;5022063;28;20405;-77
2023/02/19 09:17:26;;;;;;;6.25;3.40;;;8.10;99.90;;;;;;5023204;28;20045;-78
2023/02/19 09:19:51;;;;;;;4.95;3.10;;;8.10;99.90;;;;;;5028161;28;20043;-76
2023/02/19 09:22:17;;;;;;;4.63;2.90;;;8.20;99.90;;;;;;5011130;28;20041;-76
2023/02/19 09:24:43;;;;;;;4.60;2.63;;;8.20;99.90;;;;;;5026941;28;20065;-76
2023/02/19 09:27:18;;;;;;;4.75;3.10;;;8.20;99.90;;;;;;5028425;28;20514;-76
2023/02/19 09:29:44;;;;;;;4.88;2.60;;;8.20;99.90;;;;;;5028965;28;20041;-76
2023/02/19 09:32:10;;;;;;;5.38;2.70;;;8.30;99.90;;;;;;5027350;28;20056;-76
2023/02/19 09:34:37;;;;;;;4.95;2.65;;;8.20;99.90;;;;;;5027261;28;20048;-76
2023/02/19 09:37:04;;;;;;;5.13;2.70;;;8.30;99.90;;;;;;5011169;28;20037;-76
2023/02/19 09:39:30;;;;;;;4.00;2.50;;;8.30;99.90;;;;;;5003331;28;20399;-77
2023/02/19 09:42:16;;;;;;;4.43;2.50;;;8.30;99.90;;;;;;5030465;28;20049;-76
2023/02/19 09:44:46;;;;;;;4.40;2.58;;;8.40;99.90;;;;;;5030266;28;20967;-76
2023/02/19 09:47:21;;;;;;;4.32;2.30;;;8.40;99.90;;;;;;5027641;28;21040;-76
2023/02/19 09:49:50;;;;;;;4.72;2.72;;;8.50;99.90;;;;;;5025467;28;20067;-77
2023/02/19 09:52:29;;;;;;;4.05;2.70;;;8.50;99.90;;;;;;5038493;28;20116;-77
2023/02/19 09:54:58;;;;;;;4.38;2.95;;;8.50;99.90;;;;;;5043049;28;20042;-76
2023/02/19 09:57:26;;;;;;;4.78;2.60;;;8.40;99.90;;;;;;5027079;28;20037;-77
2023/02/19 10:00:03;;;;;;;5.85;3.00;;;8.40;99.90;;;;;;5027840;28;20133;-80
2023/02/19 10:02:30;;;;;;;5.57;3.17;;;8.50;99.90;;;;;;5025693;28;20550;-77
2023/02/19 10:04:56;;;;;;;5.95;3.20;;;8.50;99.90;;;;;;5030648;28;20042;-76
2023/02/19 10:07:25;;;;;;;5.90;3.58;;;8.40;99.90;;;;;;5022584;28;20064;-77
2023/02/19 10:10:17;;;;;;;4.82;3.25;;;8.40;99.90;;;;;;5030464;28;20040;-77
2023/02/19 10:12:50;;;;;;;6.57;3.58;;;8.40;99.90;;;;;;5011744;28;20052;-76
2023/02/19 10:15:31;;;;;;;6.68;3.65;;;8.40;99.90;;;;;;5029855;28;20037;-75
2023/02/19 10:17:56;;;;;;;5.53;3.55;;;8.50;99.90;;;;;;5029597;28;20098;-76
2023/02/19 10:20:26;;;;;;;6.32;4.15;;;8.30;99.90;;;;;;5020264;28;20469;-79
2023/02/19 10:23:04;;;;;;;6.65;3.90;;;8.30;99.90;;;;;;5003900;28;20449;-76
2023/02/19 10:25:32;;;;;;;5.55;3.72;;;8.40;99.90;;;;;;5019206;28;20484;-76
2023/02/19 10:27:59;;;;;;;5.88;3.40;;;8.40;99.90;;;;;;5024873;28;20037;-75
2023/02/19 10:30:28;;;;;;;5.93;3.30;;;8.40;99.90;;;;;;5020744;28;20117;-76
2023/02/19 10:33:03;;;;;;;5.70;3.15;;;8.40;99.90;;;;;;5041735;28;20079;-76
2023/02/19 10:35:33;;;;;;;5.60;3.50;;;8.50;99.90;;;;;;5019195;28;20041;-76
2023/02/19 10:38:00;;;;;;;8.20;3.42;;;8.40;99.90;;;;;;5023425;28;20029;-76
2023/02/19 10:40:27;;;;;;;4.93;2.92;;;8.40;99.90;;;;;;5020907;28;20041;-76
2023/02/19 10:42:59;;;;;;;6.13;3.78;;;8.40;99.90;;;;;;5021834;28;20072;-77
2023/02/19 10:45:25;;;;;;;;;;;8.40;99.90;;;;;;5009838;28;20041;-76
2023/02/19 10:47:51;;;;;;;6.35;3.58;;;8.40;99.90;;;;;;5051024;28;19923;-75
2023/02/19 10:50:31;;;;;;;6.38;3.58;;;8.50;99.90;;;;;;5022304;28;20066;-77
2023/02/19 10:52:59;;;;;;;4.97;3.13;;;8.40;99.90;;;;;;5025135;28;20040;-75
2023/02/19 10:55:27;;;;;;;4.85;3.25;;;8.50;99.90;;;;;;5035018;28;20046;-76
2023/02/19 10:57:54;;;;;;;4.88;2.78;;;8.60;99.90;;;;;;5044756;28;20043;-77
2023/02/19 11:00:29;;;;;;;3.90;2.50;;;8.70;99.90;;;;;;5031471;28;20049;-75
2023/02/19 11:03:13;;;;;;;4.25;2.60;;;8.90;99.90;;;;;;5023595;28;20069;-75
2023/02/19 11:05:49;;;;;;;4.20;2.90;;;9.10;99.90;;;;;;5016929;28;20041;-75
2023/02/19 11:08:22;;;;;;;4.70;2.80;;;9.20;99.90;;;;;;5034964;28;20041;-75
2023/02/19 11:10:48;;;;;;;4.38;2.58;;;9.40;99.90;;;;;;5047273;28;20432;-75
2023/02/19 11:13:19;;;;;;;4.30;2.60;;;9.60;99.90;;;;;;5022852;28;20039;-75
2023/02/19 11:15:51;;;;;;;4.32;2.85;;;9.70;99.90;;;;;;5024347;28;20037;-75
2023/02/19 11:18:21;;;;;;;5.18;2.78;;;9.90;99.90;;;;;;5040425;28;20052;-76
2023/02/19 11:20:48;;;;;;;4.22;2.72;;;10.00;99.90;;;;;;5036579;28;20076;-75
2023/02/19 11:23:21;;;;;;;3.70;2.22;;;10.10;99.90;;;;;;5026967;28;20064;-76
2023/02/19 11:25:52;;;;;;;3.55;2.03;;;10.00;99.90;;;;;;5030675;28;20493;-75
2023/02/19 11:28:21;;;;;;;2.97;2.13;;;9.90;99.90;;;;;;5021169;28;20045;-76
2023/02/19 11:30:47;;;;;;;3.08;2.10;;;9.80;99.90;;;;;;5028226;28;20106;-75
2023/02/19 11:33:16;;;;;;;4.28;2.40;;;9.70;99.90;;;;;;5020452;28;20055;-75
2023/02/19 11:35:47;;;;;;;4.53;2.30;;;9.80;99.90;;;;;;5022358;28;20041;-76
2023/02/19 11:38:15;;;;;;;3.45;2.10;;;9.90;99.90;;;;;;5024084;28;20041;-75
2023/02/19 11:41:10;;;;;;;3.28;2.03;;;10.10;99.90;;;;;;5026184;28;20045;-75
2023/02/19 11:43:47;;;;;;;3.65;2.05;;;10.20;99.90;;;;;;5029819;28;20063;-75
2023/02/19 11:46:47;;;;;;;2.80;2.13;;;10.10;99.90;;;;;;5016779;28;20045;-77
2023/02/19 11:49:13;;;;;;;3.25;2.10;;;10.10;99.90;;;;;;5022299;28;20049;-75
2023/02/19 11:52:03;;;;;;;4.47;2.08;;;9.90;99.90;;;;;;5025732;28;20037;-77
2023/02/19 11:54:51;;;;;;;3.10;1.98;;;9.90;99.90;;;;;;5035500;28;20048;-75
2023/02/19 11:57:25;;;;;;;3.05;1.80;;;9.80;99.90;;;;;;5025472;28;20049;-74
2023/02/19 12:00:15;;;;;;;2.13;1.60;;;9.70;99.90;;;;;;5030657;28;20049;-75
2023/02/19 12:03:08;;;;;;;2.50;1.48;;;9.70;99.90;;;;;;5021520;28;20482;-75
2023/02/19 12:05:54;;;;;;;2.03;1.50;;;9.60;99.90;;;;;;5017511;28;20486;-75
2023/02/19 12:08:48;;;;;;;2.25;1.70;;;9.60;99.90;;;;;;5027585;28;20120;-75
2023/02/19 12:11:33;;;;;;;1.70;1.38;;;9.60;99.90;;;;;;5016176;28;20453;-76
2023/02/19 12:14:27;;;;;;;3.10;1.60;;;9.50;99.90;;;;;;5033027;28;20094;-75
2023/02/19 12:17:06;;;;;;;3.38;1.80;;;9.60;99.90;;;;;;5032881;28;20047;-76
2023/02/19 12:19:54;;;;;;;3.40;2.05;;;9.60;99.90;;;;;;5037069;28;20128;-75
2023/02/19 12:22:23;;;;;;;2.90;1.98;;;9.70;99.90;;;;;;5024250;28;20040;-76
2023/02/19 12:25:22;;;;;;;2.95;1.80;;;9.90;99.90;;;;;;5029721;28;20504;-75
2023/02/19 12:28:21;;;;;;;3.30;1.73;;;9.90;99.90;;;;;;5022030;28;20524;-76
2023/02/19 12:31:11;;;;;;;3.80;1.80;;;9.90;99.90;;;;;;5018128;28;20111;-75
2023/02/19 12:33:52;;;;;;;2.70;1.33;;;9.90;99.90;;;;;;5026662;28;20037;-75
2023/02/19 12:36:50;;;;;;;2.05;1.33;;;9.80;99.90;;;;;;5028274;28;20331;-75
2023/02/19 12:39:27;;;;;;;2.00;1.27;;;9.80;99.90;;;;;;5020228;28;20060;-75
2023/02/19 12:42:12;;;;;;;2.05;1.20;;;9.70;99.90;;;;;;5033617;28;20033;-74
2023/02/19 12:44:44;;;;;;;1.67;1.00;;;9.70;99.90;;;;;;5029163;28;20098;-75
2023/02/19 12:47:17;;;;;;;1.73;1.00;;;9.70;99.90;;;;;;5027067;28;20040;-75
2023/02/19 12:49:54;;;;;;;1.33;1.05;;;9.60;99.90;;;;;;5029691;28;20052;-74
2023/02/19 12:52:33;;;;;;;1.77;0.90;;;9.50;99.90;;;;;;5023060;28;20116;-75
2023/02/19 12:55:10;;;;;;;1.30;0.90;;;9.60;99.90;;;;;;5038280;28;20048;-75
2023/02/19 12:57:37;;;;;;;1.67;0.88;;;9.50;99.90;;;;;;5022847;28;20489;-75
2023/02/19 13:00:28;;;;;;;1.80;1.08;;;9.40;99.90;;;;;;5029478;28;20122;-75
2023/02/19 13:03:22;;;;;;;4.50;1.17;;;9.30;99.90;;;;;;5023758;28;20394;-75
2023/02/19 13:06:27;;;;;;;2.35;0.93;;;9.30;99.90;;;;;;5028630;28;20049;-75
2023/02/19 13:08:55;;;;;;;0.90;0.80;;;9.20;99.90;;;;;;4932150;29;20047;-75
2023/02/19 13:11:30;;;;;;;2.55;0.98;;;9.20;99.90;;;;;;5027353;28;20061;-75
2023/02/19 13:14:05;;;;;;;1.38;0.80;;;9.20;99.90;;;;;;5022050;28;20497;-75
2023/02/19 13:16:33;;;;;;;1.10;0.68;;;9.20;99.90;;;;;;5019047;28;20038;-75
2023/02/19 13:19:01;;;;;;;2.60;1.20;;;9.20;99.90;;;;;;5019562;28;20133;-75
2023/02/19 13:24:23;;;;;;;0.95;0.80;;;9.30;99.90;;;;;;5026284;28;20099;-75
2023/02/19 13:26:49;;;;;;;1.55;0.80;;;9.30;99.90;;;;;;5021844;28;20481;-76
2023/02/19 13:29:44;;;;;;;1.88;0.70;;;9.20;99.90;;;;;;5019584;28;20040;-75
2023/02/19 13:32:24;;;;;;;3.33;1.17;;;9.20;99.90;;;;;;5007680;28;20486;-76
2023/02/19 13:35:29;;;;;;;2.47;1.00;;;9.20;99.90;;;;;;5025139;28;20044;-75